Riverside, California
Current Conditions -  °F | °C
As of 12:53 PM on Friday 24 Oct 2014 (Local Time) from KRAL Reporting Station
Clear Clear  
Wind Chill: 89°   Ceiling: Unl
Heat Index: 89°   Visibility: 10mi
Dew Point: 38°   Wind: 5mph
Humidity: 16%   Direction: NA
Pressure: 29.96"   Gusts: NA
Location:  33.98°N, 117.37°W
Report Text: KRAL 241953Z VRB04KT 10SM CLR 32/03 A2996 RMK AO2 SLP130 T03170033
Loading
Personal Weather Stations






























Interactive Weather Map New forecast layout! Learn more

10-Day Weather Forecast

Advertisements
Track Severe Weather on mobile